sensor_id;sensor_type;location;lat;lon;timestamp;temperature;humidity
33837;DHT22;20140;49.356;8.812;2023-02-19T00:01:00;10.00;99.90
33837;DHT22;20140;49.356;8.812;2023-02-19T00:03:28;10.00;99.90
33837;DHT22;20140;49.356;8.812;2023-02-19T00:05:53;9.90;99.90
33837;DHT22;20140;49.356;8.812;2023-02-19T00:08:19;9.90;99.90
33837;DHT22;20140;49.356;8.812;2023-02-19T00:10:44;9.90;99.90
33837;DHT22;20140;49.356;8.812;2023-02-19T00:13:10;9.90;99.90
33837;DHT22;20140;49.356;8.812;2023-02-19T00:15:35;9.80;99.90
33837;DHT22;20140;49.356;8.812;2023-02-19T00:18:01;9.80;99.90
33837;DHT22;20140;49.356;8.812;2023-02-19T00:20:26;9.80;99.90
33837;DHT22;20140;49.356;8.812;2023-02-19T00:22:52;9.70;99.90
33837;DHT22;20140;49.356;8.812;2023-02-19T00:25:17;9.60;99.90
33837;DHT22;20140;49.356;8.812;2023-02-19T00:27:43;9.60;99.90
33837;DHT22;20140;49.356;8.812;2023-02-19T00:30:08;9.60;99.90
33837;DHT22;20140;49.356;8.812;2023-02-19T00:32:34;9.50;99.90
33837;DHT22;20140;49.356;8.812;2023-02-19T00:34:59;9.50;99.90
33837;DHT22;20140;49.356;8.812;2023-02-19T00:37:25;9.50;99.90
33837;DHT22;20140;49.356;8.812;2023-02-19T00:39:50;9.40;99.90
33837;DHT22;20140;49.356;8.812;2023-02-19T00:42:16;9.40;99.90
33837;DHT22;20140;49.356;8.812;2023-02-19T00:44:41;9.40;99.90
33837;DHT22;20140;49.356;8.812;2023-02-19T00:47:07;9.30;99.90
33837;DHT22;20140;49.356;8.812;2023-02-19T00:49:32;9.40;99.90
33837;DHT22;20140;49.356;8.812;2023-02-19T00:51:58;9.40;99.90
33837;DHT22;20140;49.356;8.812;2023-02-19T00:54:23;9.50;99.90
33837;DHT22;20140;49.356;8.812;2023-02-19T00:56:50;9.50;99.90
33837;DHT22;20140;49.356;8.812;2023-02-19T00:59:16;9.50;99.90
33837;DHT22;20140;49.356;8.812;2023-02-19T01:01:42;9.50;99.90
33837;DHT22;20140;49.356;8.812;2023-02-19T01:04:09;9.50;99.90
33837;DHT22;20140;49.356;8.812;2023-02-19T01:06:35;9.50;99.90
33837;DHT22;20140;49.356;8.812;2023-02-19T01:09:02;9.50;99.90
33837;DHT22;20140;49.356;8.812;2023-02-19T01:11:28;9.50;99.90
33837;DHT22;20140;49.356;8.812;2023-02-19T01:13:58;9.50;99.90
33837;DHT22;20140;49.356;8.812;2023-02-19T01:16:24;9.50;99.90
33837;DHT22;20140;49.356;8.812;2023-02-19T01:18:52;9.50;99.90
33837;DHT22;20140;49.356;8.812;2023-02-19T01:21:21;9.50;99.90
33837;DHT22;20140;49.356;8.812;2023-02-19T01:23:48;9.50;99.90
33837;DHT22;20140;49.356;8.812;2023-02-19T01:26:18;9.50;99.90
33837;DHT22;20140;49.356;8.812;2023-02-19T01:28:44;9.50;99.90
33837;DHT22;20140;49.356;8.812;2023-02-19T01:31:15;9.50;99.90
33837;DHT22;20140;49.356;8.812;2023-02-19T01:33:50;9.50;99.90
33837;DHT22;20140;49.356;8.812;2023-02-19T01:36:16;9.50;99.90
33837;DHT22;20140;49.356;8.812;2023-02-19T01:38:42;9.50;99.90
33837;DHT22;20140;49.356;8.812;2023-02-19T01:41:10;9.50;99.90
33837;DHT22;20140;49.356;8.812;2023-02-19T01:46:38;9.50;99.90
33837;DHT22;20140;49.356;8.812;2023-02-19T01:49:26;9.40;99.90
33837;DHT22;20140;49.356;8.812;2023-02-19T01:54:23;9.30;99.90
33837;DHT22;20140;49.356;8.812;2023-02-19T01:56:49;9.20;99.90
33837;DHT22;20140;49.356;8.812;2023-02-19T01:59:16;9.10;99.90
33837;DHT22;20140;49.356;8.812;2023-02-19T02:01:43;9.00;99.90
33837;DHT22;20140;49.356;8.812;2023-02-19T02:04:09;9.00;99.90
33837;DHT22;20140;49.356;8.812;2023-02-19T02:06:53;9.10;99.90
33837;DHT22;20140;49.356;8.812;2023-02-19T02:09:23;9.10;99.90
33837;DHT22;20140;49.356;8.812;2023-02-19T02:12:08;9.10;99.90
33837;DHT22;20140;49.356;8.812;2023-02-19T02:14:36;9.20;99.90
33837;DHT22;20140;49.356;8.812;2023-02-19T02:20:00;9.20;99.90
33837;DHT22;20140;49.356;8.812;2023-02-19T02:22:35;9.20;99.90
33837;DHT22;20140;49.356;8.812;2023-02-19T02:33:18;9.20;99.90
33837;DHT22;20140;49.356;8.812;2023-02-19T02:35:53;9.20;99.90
33837;DHT22;20140;49.356;8.812;2023-02-19T02:38:27;9.20;99.90
33837;DHT22;20140;49.356;8.812;2023-02-19T02:40:53;9.20;99.90
33837;DHT22;20140;49.356;8.812;2023-02-19T02:43:20;9.30;99.90
33837;DHT22;20140;49.356;8.812;2023-02-19T02:45:46;9.30;99.90
33837;DHT22;20140;49.356;8.812;2023-02-19T02:50:47;9.30;99.90
33837;DHT22;20140;49.356;8.812;2023-02-19T02:56:12;9.30;99.90
33837;DHT22;20140;49.356;8.812;2023-02-19T02:58:38;9.30;99.90
33837;DHT22;20140;49.356;8.812;2023-02-19T03:01:11;9.30;99.90
33837;DHT22;20140;49.356;8.812;2023-02-19T03:04:04;9.30;99.90
33837;DHT22;20140;49.356;8.812;2023-02-19T03:06:32;9.30;99.90
33837;DHT22;20140;49.356;8.812;2023-02-19T03:11:31;9.20;99.90
33837;DHT22;20140;49.356;8.812;2023-02-19T03:14:21;9.20;99.90
33837;DHT22;20140;49.356;8.812;2023-02-19T03:17:25;9.10;99.90
33837;DHT22;20140;49.356;8.812;2023-02-19T03:20:13;9.10;99.90
33837;DHT22;20140;49.356;8.812;2023-02-19T03:22:41;9.10;99.90
33837;DHT22;20140;49.356;8.812;2023-02-19T03:25:18;9.10;99.90
33837;DHT22;20140;49.356;8.812;2023-02-19T03:28:05;9.00;99.90
33837;DHT22;20140;49.356;8.812;2023-02-19T03:30:34;9.00;99.90
33837;DHT22;20140;49.356;8.812;2023-02-19T03:35:45;8.90;99.90
33837;DHT22;20140;49.356;8.812;2023-02-19T03:38:26;8.90;99.90
33837;DHT22;20140;49.356;8.812;2023-02-19T03:40:57;8.90;99.90
33837;DHT22;20140;49.356;8.812;2023-02-19T03:43:39;8.90;99.90
33837;DHT22;20140;49.356;8.812;2023-02-19T03:46:10;8.90;99.90
33837;DHT22;20140;49.356;8.812;2023-02-19T03:48:44;8.80;99.90
33837;DHT22;20140;49.356;8.812;2023-02-19T03:51:30;8.80;99.90
33837;DHT22;20140;49.356;8.812;2023-02-19T03:54:14;8.70;99.90
33837;DHT22;20140;49.356;8.812;2023-02-19T04:01:55;8.60;99.90
33837;DHT22;20140;49.356;8.812;2023-02-19T04:04:32;8.50;99.90
33837;DHT22;20140;49.356;8.812;2023-02-19T04:06:59;8.50;99.90
33837;DHT22;20140;49.356;8.812;2023-02-19T04:09:28;8.50;99.90
33837;DHT22;20140;49.356;8.812;2023-02-19T04:11:55;8.50;99.90
33837;DHT22;20140;49.356;8.812;2023-02-19T04:14:28;8.50;99.90
33837;DHT22;20140;49.356;8.812;2023-02-19T04:16:59;8.50;99.90
33837;DHT22;20140;49.356;8.812;2023-02-19T04:19:26;8.50;99.90
33837;DHT22;20140;49.356;8.812;2023-02-19T04:21:53;8.50;99.90
33837;DHT22;20140;49.356;8.812;2023-02-19T04:24:38;8.50;99.90
33837;DHT22;20140;49.356;8.812;2023-02-19T04:27:05;8.50;99.90
33837;DHT22;20140;49.356;8.812;2023-02-19T04:29:32;8.50;99.90
33837;DHT22;20140;49.356;8.812;2023-02-19T04:31:58;8.50;99.90
33837;DHT22;20140;49.356;8.812;2023-02-19T04:34:23;8.50;99.90
33837;DHT22;20140;49.356;8.812;2023-02-19T04:36:49;8.50;99.90
33837;DHT22;20140;49.356;8.812;2023-02-19T04:39:14;8.50;99.90
33837;DHT22;20140;49.356;8.812;2023-02-19T04:41:40;8.50;99.90
33837;DHT22;20140;49.356;8.812;2023-02-19T04:44:05;8.50;99.90
33837;DHT22;20140;49.356;8.812;2023-02-19T04:46:31;8.50;99.90
33837;DHT22;20140;49.356;8.812;2023-02-19T04:48:57;8.50;99.90
33837;DHT22;20140;49.356;8.812;2023-02-19T04:51:22;8.50;99.90
33837;DHT22;20140;49.356;8.812;2023-02-19T04:53:48;8.60;99.90
33837;DHT22;20140;49.356;8.812;2023-02-19T04:56:14;8.60;99.90
33837;DHT22;20140;49.356;8.812;2023-02-19T04:58:40;8.50;99.90
33837;DHT22;20140;49.356;8.812;2023-02-19T05:01:07;8.60;99.90
33837;DHT22;20140;49.356;8.812;2023-02-19T05:03:32;8.50;99.90
33837;DHT22;20140;49.356;8.812;2023-02-19T05:06:08;8.50;99.90
33837;DHT22;20140;49.356;8.812;2023-02-19T05:08:34;8.50;99.90
33837;DHT22;20140;49.356;8.812;2023-02-19T05:11:00;8.50;99.90
33837;DHT22;20140;49.356;8.812;2023-02-19T05:13:26;8.50;99.90
33837;DHT22;20140;49.356;8.812;2023-02-19T05:16:04;8.50;99.90
33837;DHT22;20140;49.356;8.812;2023-02-19T05:18:31;8.50;99.90
33837;DHT22;20140;49.356;8.812;2023-02-19T05:20:58;8.50;99.90
33837;DHT22;20140;49.356;8.812;2023-02-19T05:23:25;8.50;99.90
33837;DHT22;20140;49.356;8.812;2023-02-19T05:25:51;8.50;99.90
33837;DHT22;20140;49.356;8.812;2023-02-19T05:28:17;8.50;99.90
33837;DHT22;20140;49.356;8.812;2023-02-19T05:30:50;8.50;99.90
33837;DHT22;20140;49.356;8.812;2023-02-19T05:33:18;8.50;99.90
33837;DHT22;20140;49.356;8.812;2023-02-19T05:35:48;8.50;99.90
33837;DHT22;20140;49.356;8.812;2023-02-19T05:38:15;8.50;99.90
33837;DHT22;20140;49.356;8.812;2023-02-19T05:40:42;8.40;99.90
33837;DHT22;20140;49.356;8.812;2023-02-19T05:43:08;8.40;99.90
33837;DHT22;20140;49.356;8.812;2023-02-19T05:45:34;8.40;99.90
33837;DHT22;20140;49.356;8.812;2023-02-19T05:48:00;8.40;99.90
33837;DHT22;20140;49.356;8.812;2023-02-19T05:50:26;8.40;99.90
33837;DHT22;20140;49.356;8.812;2023-02-19T05:52:52;8.40;99.90
33837;DHT22;20140;49.356;8.812;2023-02-19T05:55:18;8.40;99.90
33837;DHT22;20140;49.356;8.812;2023-02-19T05:57:45;8.40;99.90
33837;DHT22;20140;49.356;8.812;2023-02-19T06:00:13;8.40;99.90
33837;DHT22;20140;49.356;8.812;2023-02-19T06:02:39;8.40;99.90
33837;DHT22;20140;49.356;8.812;2023-02-19T06:05:05;8.40;99.90
33837;DHT22;20140;49.356;8.812;2023-02-19T06:07:31;8.40;99.90
33837;DHT22;20140;49.356;8.812;2023-02-19T06:09:57;8.40;99.90
33837;DHT22;20140;49.356;8.812;2023-02-19T06:12:23;8.40;99.90
33837;DHT22;20140;49.356;8.812;2023-02-19T06:14:49;8.40;99.90
33837;DHT22;20140;49.356;8.812;2023-02-19T06:17:15;8.40;99.90
33837;DHT22;20140;49.356;8.812;2023-02-19T06:19:40;8.30;99.90
33837;DHT22;20140;49.356;8.812;2023-02-19T06:22:06;8.40;99.90
33837;DHT22;20140;49.356;8.812;2023-02-19T06:24:31;8.40;99.90
33837;DHT22;20140;49.356;8.812;2023-02-19T06:26:57;8.30;99.90
33837;DHT22;20140;49.356;8.812;2023-02-19T06:29:23;8.30;99.90
33837;DHT22;20140;49.356;8.812;2023-02-19T06:31:49;8.30;99.90
33837;DHT22;20140;49.356;8.812;2023-02-19T06:34:14;8.30;99.90
33837;DHT22;20140;49.356;8.812;2023-02-19T06:36:40;8.40;99.90
33837;DHT22;20140;49.356;8.812;2023-02-19T06:39:05;8.40;99.90
33837;DHT22;20140;49.356;8.812;2023-02-19T06:41:31;8.40;99.90
33837;DHT22;20140;49.356;8.812;2023-02-19T06:43:57;8.40;99.90
33837;DHT22;20140;49.356;8.812;2023-02-19T06:46:23;8.40;99.90
33837;DHT22;20140;49.356;8.812;2023-02-19T06:48:48;8.50;99.90
33837;DHT22;20140;49.356;8.812;2023-02-19T06:51:16;8.50;99.90
33837;DHT22;20140;49.356;8.812;2023-02-19T06:53:44;8.50;99.90
33837;DHT22;20140;49.356;8.812;2023-02-19T06:56:42;8.50;99.90
33837;DHT22;20140;49.356;8.812;2023-02-19T06:59:11;8.60;99.90
33837;DHT22;20140;49.356;8.812;2023-02-19T07:01:38;8.60;99.90
33837;DHT22;20140;49.356;8.812;2023-02-19T07:04:05;8.60;99.90
33837;DHT22;20140;49.356;8.812;2023-02-19T07:06:32;8.60;99.90
33837;DHT22;20140;49.356;8.812;2023-02-19T07:08:59;8.60;99.90
33837;DHT22;20140;49.356;8.812;2023-02-19T07:11:25;8.60;99.90
33837;DHT22;20140;49.356;8.812;2023-02-19T07:13:54;8.60;99.90
33837;DHT22;20140;49.356;8.812;2023-02-19T07:16:20;8.60;99.90
33837;DHT22;20140;49.356;8.812;2023-02-19T07:18:45;8.70;99.90
33837;DHT22;20140;49.356;8.812;2023-02-19T07:21:13;8.70;99.90
33837;DHT22;20140;49.356;8.812;2023-02-19T07:23:39;8.60;99.90
33837;DHT22;20140;49.356;8.812;2023-02-19T07:26:08;8.70;99.90
33837;DHT22;20140;49.356;8.812;2023-02-19T07:28:34;8.70;99.90
33837;DHT22;20140;49.356;8.812;2023-02-19T07:31:00;8.80;99.90
33837;DHT22;20140;49.356;8.812;2023-02-19T07:33:26;8.80;99.90
33837;DHT22;20140;49.356;8.812;2023-02-19T07:35:52;8.80;99.90
33837;DHT22;20140;49.356;8.812;2023-02-19T07:38:20;8.80;99.90
33837;DHT22;20140;49.356;8.812;2023-02-19T07:41:00;8.80;99.90
33837;DHT22;20140;49.356;8.812;2023-02-19T07:43:28;8.80;99.90
33837;DHT22;20140;49.356;8.812;2023-02-19T07:45:54;8.80;99.90
33837;DHT22;20140;49.356;8.812;2023-02-19T07:48:20;8.90;99.90
33837;DHT22;20140;49.356;8.812;2023-02-19T07:50:52;8.90;99.90
33837;DHT22;20140;49.356;8.812;2023-02-19T07:53:18;8.90;99.90
33837;DHT22;20140;49.356;8.812;2023-02-19T07:55:44;9.00;99.90
33837;DHT22;20140;49.356;8.812;2023-02-19T07:58:10;9.00;99.90
33837;DHT22;20140;49.356;8.812;2023-02-19T08:00:35;9.00;99.90
33837;DHT22;20140;49.356;8.812;2023-02-19T08:03:01;9.00;99.90
33837;DHT22;20140;49.356;8.812;2023-02-19T08:05:31;9.00;99.90
33837;DHT22;20140;49.356;8.812;2023-02-19T08:07:58;9.10;99.90
33837;DHT22;20140;49.356;8.812;2023-02-19T08:10:24;9.10;99.90
33837;DHT22;20140;49.356;8.812;2023-02-19T08:13:14;9.20;99.90
33837;DHT22;20140;49.356;8.812;2023-02-19T08:15:52;9.20;99.90
33837;DHT22;20140;49.356;8.812;2023-02-19T08:18:21;9.30;99.90
33837;DHT22;20140;49.356;8.812;2023-02-19T08:20:46;9.30;99.90
33837;DHT22;20140;49.356;8.812;2023-02-19T08:23:12;9.30;99.90
33837;DHT22;20140;49.356;8.812;2023-02-19T08:25:39;9.30;99.90
33837;DHT22;20140;49.356;8.812;2023-02-19T08:28:05;9.40;99.90
33837;DHT22;20140;49.356;8.812;2023-02-19T08:30:32;9.40;99.90
33837;DHT22;20140;49.356;8.812;2023-02-19T08:32:59;9.50;99.90
33837;DHT22;20140;49.356;8.812;2023-02-19T08:35:25;9.50;99.90
33837;DHT22;20140;49.356;8.812;2023-02-19T08:37:54;9.50;99.90
33837;DHT22;20140;49.356;8.812;2023-02-19T08:40:21;9.60;99.90
33837;DHT22;20140;49.356;8.812;2023-02-19T08:42:46;9.60;99.90
33837;DHT22;20140;49.356;8.812;2023-02-19T08:45:12;9.60;99.90
33837;DHT22;20140;49.356;8.812;2023-02-19T08:47:38;9.70;99.90
33837;DHT22;20140;49.356;8.812;2023-02-19T08:50:05;9.60;99.90
33837;DHT22;20140;49.356;8.812;2023-02-19T08:52:31;9.70;99.90
33837;DHT22;20140;49.356;8.812;2023-02-19T08:54:57;9.70;99.90
33837;DHT22;20140;49.356;8.812;2023-02-19T08:57:23;9.80;99.90
33837;DHT22;20140;49.356;8.812;2023-02-19T08:59:49;9.80;99.90
33837;DHT22;20140;49.356;8.812;2023-02-19T09:02:15;9.90;99.90
33837;DHT22;20140;49.356;8.812;2023-02-19T09:04:40;9.90;99.90
33837;DHT22;20140;49.356;8.812;2023-02-19T09:07:06;10.00;99.90
33837;DHT22;20140;49.356;8.812;2023-02-19T09:09:36;10.00;99.90
33837;DHT22;20140;49.356;8.812;2023-02-19T09:12:04;10.00;99.90
33837;DHT22;20140;49.356;8.812;2023-02-19T09:14:33;10.00;99.90
33837;DHT22;20140;49.356;8.812;2023-02-19T09:17:00;10.10;99.90
33837;DHT22;20140;49.356;8.812;2023-02-19T09:19:26;10.00;99.90
33837;DHT22;20140;49.356;8.812;2023-02-19T09:21:52;10.10;99.90
33837;DHT22;20140;49.356;8.812;2023-02-19T09:24:18;10.10;99.90
33837;DHT22;20140;49.356;8.812;2023-02-19T09:26:44;10.10;99.90
33837;DHT22;20140;49.356;8.812;2023-02-19T09:29:09;10.00;99.90
33837;DHT22;20140;49.356;8.812;2023-02-19T09:31:35;10.00;99.90
33837;DHT22;20140;49.356;8.812;2023-02-19T09:34:01;10.00;99.90
33837;DHT22;20140;49.356;8.812;2023-02-19T09:36:26;10.00;99.90
33837;DHT22;20140;49.356;8.812;2023-02-19T09:38:52;10.00;99.90
33837;DHT22;20140;49.356;8.812;2023-02-19T09:41:32;10.00;99.90
33837;DHT22;20140;49.356;8.812;2023-02-19T09:43:59;9.90;99.90
33837;DHT22;20140;49.356;8.812;2023-02-19T09:46:45;10.00;99.90
33837;DHT22;20140;49.356;8.812;2023-02-19T09:49:35;10.00;99.90
33837;DHT22;20140;49.356;8.812;2023-02-19T09:52:12;10.00;99.90
33837;DHT22;20140;49.356;8.812;2023-02-19T09:54:39;10.10;99.90
33837;DHT22;20140;49.356;8.812;2023-02-19T09:57:19;10.20;99.90
33837;DHT22;20140;49.356;8.812;2023-02-19T10:02:38;10.20;99.90
33837;DHT22;20140;49.356;8.812;2023-02-19T10:05:11;10.30;99.90
33837;DHT22;20140;49.356;8.812;2023-02-19T10:07:43;10.30;99.90
33837;DHT22;20140;49.356;8.812;2023-02-19T10:12:40;10.30;99.90
33837;DHT22;20140;49.356;8.812;2023-02-19T10:15:26;10.40;99.90
33837;DHT22;20140;49.356;8.812;2023-02-19T10:17:53;10.40;99.90
33837;DHT22;20140;49.356;8.812;2023-02-19T10:20:20;10.50;99.90
33837;DHT22;20140;49.356;8.812;2023-02-19T10:22:58;10.60;99.90
33837;DHT22;20140;49.356;8.812;2023-02-19T10:25:24;10.70;99.90
33837;DHT22;20140;49.356;8.812;2023-02-19T10:27:50;10.70;99.90
33837;DHT22;20140;49.356;8.812;2023-02-19T10:30:24;10.70;99.90
33837;DHT22;20140;49.356;8.812;2023-02-19T10:33:03;10.60;99.90
33837;DHT22;20140;49.356;8.812;2023-02-19T10:35:30;10.70;99.90
33837;DHT22;20140;49.356;8.812;2023-02-19T10:38:00;10.80;99.90
33837;DHT22;20140;49.356;8.812;2023-02-19T10:40:27;10.90;99.90
33837;DHT22;20140;49.356;8.812;2023-02-19T10:42:57;10.90;99.90
33837;DHT22;20140;49.356;8.812;2023-02-19T10:45:33;11.00;99.90
33837;DHT22;20140;49.356;8.812;2023-02-19T10:47:59;11.00;99.90
33837;DHT22;20140;49.356;8.812;2023-02-19T10:50:29;11.00;99.90
33837;DHT22;20140;49.356;8.812;2023-02-19T10:52:58;11.00;99.90
33837;DHT22;20140;49.356;8.812;2023-02-19T10:57:53;11.10;99.90
33837;DHT22;20140;49.356;8.812;2023-02-19T11:02:47;11.10;99.90
33837;DHT22;20140;49.356;8.812;2023-02-19T11:05:18;11.20;99.90
33837;DHT22;20140;49.356;8.812;2023-02-19T11:07:51;11.10;99.90
33837;DHT22;20140;49.356;8.812;2023-02-19T11:10:38;11.10;99.90
33837;DHT22;20140;49.356;8.812;2023-02-19T11:13:06;11.10;99.90
33837;DHT22;20140;49.356;8.812;2023-02-19T11:15:38;11.20;99.90
33837;DHT22;20140;49.356;8.812;2023-02-19T11:18:17;11.30;99.90
33837;DHT22;20140;49.356;8.812;2023-02-19T11:20:55;11.40;99.90
33837;DHT22;20140;49.356;8.812;2023-02-19T11:23:31;11.40;99.90
33837;DHT22;20140;49.356;8.812;2023-02-19T11:26:00;11.40;99.90
33837;DHT22;20140;49.356;8.812;2023-02-19T11:31:21;11.60;99.90
33837;DHT22;20140;49.356;8.812;2023-02-19T11:36:39;11.50;99.90
33837;DHT22;20140;49.356;8.812;2023-02-19T11:42:08;11.40;99.90
33837;DHT22;20140;49.356;8.812;2023-02-19T11:45:15;11.50;99.90
33837;DHT22;20140;49.356;8.812;2023-02-19T11:53:55;11.40;99.90
33837;DHT22;20140;49.356;8.812;2023-02-19T11:56:22;11.40;99.90
33837;DHT22;20140;49.356;8.812;2023-02-19T12:02:04;11.50;99.90
33837;DHT22;20140;49.356;8.812;2023-02-19T12:04:48;11.50;99.90
33837;DHT22;20140;49.356;8.812;2023-02-19T12:10:36;11.30;99.90
33837;DHT22;20140;49.356;8.812;2023-02-19T12:13:46;11.40;99.90
33837;DHT22;20140;49.356;8.812;2023-02-19T12:16:24;11.60;99.90
33837;DHT22;20140;49.356;8.812;2023-02-19T12:19:29;11.50;99.90
33837;DHT22;20140;49.356;8.812;2023-02-19T12:32:57;11.40;99.90
33837;DHT22;20140;49.356;8.812;2023-02-19T12:35:42;11.40;99.90
33837;DHT22;20140;49.356;8.812;2023-02-19T12:38:31;11.30;99.90
33837;DHT22;20140;49.356;8.812;2023-02-19T12:41:09;11.20;99.90
33837;DHT22;20140;49.356;8.812;2023-02-19T12:43:40;11.10;99.90
33837;DHT22;20140;49.356;8.812;2023-02-19T12:46:24;11.00;99.90
33837;DHT22;20140;49.356;8.812;2023-02-19T12:49:11;10.90;99.90
33837;DHT22;20140;49.356;8.812;2023-02-19T12:51:48;10.90;99.90
33837;DHT22;20140;49.356;8.812;2023-02-19T12:54:20;10.90;99.90
33837;DHT22;20140;49.356;8.812;2023-02-19T12:56:53;10.90;99.90
33837;DHT22;20140;49.356;8.812;2023-02-19T13:02:09;10.80;99.90
33837;DHT22;20140;49.356;8.812;2023-02-19T13:08:11;10.70;99.90
33837;DHT22;20140;49.356;8.812;2023-02-19T13:10:52;10.70;99.90
33837;DHT22;20140;49.356;8.812;2023-02-19T13:13:33;10.60;99.90
33837;DHT22;20140;49.356;8.812;2023-02-19T13:16:07;10.50;99.90
33837;DHT22;20140;49.356;8.812;2023-02-19T13:18:47;10.60;99.90
33837;DHT22;20140;49.356;8.812;2023-02-19T13:21:15;10.80;99.90
33837;DHT22;20140;49.356;8.812;2023-02-19T13:24:06;10.80;99.90
33837;DHT22;20140;49.356;8.812;2023-02-19T13:37:48;11.10;99.90
33837;DHT22;20140;49.356;8.812;2023-02-19T13:40:34;11.20;99.90
33837;DHT22;20140;49.356;8.812;2023-02-19T13:43:06;11.30;99.90
33837;DHT22;20140;49.356;8.812;2023-02-19T13:45:37;11.40;99.90
33837;DHT22;20140;49.356;8.812;2023-02-19T13:48:24;11.50;99.90
33837;DHT22;20140;49.356;8.812;2023-02-19T13:56:41;11.40;99.90
33837;DHT22;20140;49.356;8.812;2023-02-19T14:04:46;11.60;99.90
33837;DHT22;20140;49.356;8.812;2023-02-19T14:07:21;11.70;99.90
33837;DHT22;20140;49.356;8.812;2023-02-19T14:09:46;11.60;99.90
33837;DHT22;20140;49.356;8.812;2023-02-19T14:14:44;11.60;99.90
33837;DHT22;20140;49.356;8.812;2023-02-19T14:17:39;11.70;99.90
33837;DHT22;20140;49.356;8.812;2023-02-19T14:30:51;11.40;99.90
33837;DHT22;20140;49.356;8.812;2023-02-19T14:36:04;11.40;99.90
33837;DHT22;20140;49.356;8.812;2023-02-19T14:38:41;11.40;99.90
33837;DHT22;20140;49.356;8.812;2023-02-19T14:41:11;11.40;99.90
33837;DHT22;20140;49.356;8.812;2023-02-19T14:43:37;11.40;99.90
33837;DHT22;20140;49.356;8.812;2023-02-19T14:46:24;11.40;99.90
33837;DHT22;20140;49.356;8.812;2023-02-19T14:48:52;11.40;99.90
33837;DHT22;20140;49.356;8.812;2023-02-19T14:51:36;11.50;99.90
33837;DHT22;20140;49.356;8.812;2023-02-19T14:54:11;11.50;99.90
33837;DHT22;20140;49.356;8.812;2023-02-19T14:56:39;11.50;99.90
33837;DHT22;20140;49.356;8.812;2023-02-19T15:01:38;11.60;99.90
33837;DHT22;20140;49.356;8.812;2023-02-19T15:04:05;11.60;99.90
33837;DHT22;20140;49.356;8.812;2023-02-19T15:06:32;11.50;99.90
33837;DHT22;20140;49.356;8.812;2023-02-19T15:09:02;11.50;99.90
33837;DHT22;20140;49.356;8.812;2023-02-19T15:11:30;11.40;99.90
33837;DHT22;20140;49.356;8.812;2023-02-19T15:14:01;11.40;99.90
33837;DHT22;20140;49.356;8.812;2023-02-19T15:16:29;11.30;99.90
33837;DHT22;20140;49.356;8.812;2023-02-19T15:18:57;11.30;99.90
33837;DHT22;20140;49.356;8.812;2023-02-19T15:21:38;11.20;99.90
33837;DHT22;20140;49.356;8.812;2023-02-19T15:24:05;11.30;99.90
33837;DHT22;20140;49.356;8.812;2023-02-19T15:26:38;11.20;99.90
33837;DHT22;20140;49.356;8.812;2023-02-19T15:29:13;11.20;99.90
33837;DHT22;20140;49.356;8.812;2023-02-19T15:31:47;11.10;99.90
33837;DHT22;20140;49.356;8.812;2023-02-19T15:34:18;11.00;99.90
33837;DHT22;20140;49.356;8.812;2023-02-19T15:36:44;10.90;99.90
33837;DHT22;20140;49.356;8.812;2023-02-19T15:39:21;11.00;99.90
33837;DHT22;20140;49.356;8.812;2023-02-19T15:41:55;11.00;99.90
33837;DHT22;20140;49.356;8.812;2023-02-19T15:47:00;11.10;99.90
33837;DHT22;20140;49.356;8.812;2023-02-19T15:49:51;11.10;99.90
33837;DHT22;20140;49.356;8.812;2023-02-19T15:52:55;11.00;99.90
33837;DHT22;20140;49.356;8.812;2023-02-19T15:55:44;11.00;99.90
33837;DHT22;20140;49.356;8.812;2023-02-19T15:58:29;11.00;99.90
33837;DHT22;20140;49.356;8.812;2023-02-19T16:03:30;11.00;99.90
33837;DHT22;20140;49.356;8.812;2023-02-19T16:06:09;11.00;99.90
33837;DHT22;20140;49.356;8.812;2023-02-19T16:08:40;10.90;99.90
33837;DHT22;20140;49.356;8.812;2023-02-19T16:11:26;10.90;99.90
33837;DHT22;20140;49.356;8.812;2023-02-19T16:19:27;10.90;99.90
33837;DHT22;20140;49.356;8.812;2023-02-19T16:21:54;10.90;99.90
33837;DHT22;20140;49.356;8.812;2023-02-19T16:24:27;10.80;99.90
33837;DHT22;20140;49.356;8.812;2023-02-19T16:26:53;10.80;99.90
33837;DHT22;20140;49.356;8.812;2023-02-19T16:29:26;10.80;99.90
33837;DHT22;20140;49.356;8.812;2023-02-19T16:31:58;10.80;99.90
33837;DHT22;20140;49.356;8.812;2023-02-19T16:34:39;10.80;99.90
33837;DHT22;20140;49.356;8.812;2023-02-19T16:37:29;10.80;99.90
33837;DHT22;20140;49.356;8.812;2023-02-19T16:45:16;10.60;99.90
33837;DHT22;20140;49.356;8.812;2023-02-19T16:47:42;10.60;99.90
33837;DHT22;20140;49.356;8.812;2023-02-19T16:50:17;10.40;99.90
33837;DHT22;20140;49.356;8.812;2023-02-19T16:52:57;10.30;99.90
33837;DHT22;20140;49.356;8.812;2023-02-19T16:55:24;10.30;99.90
33837;DHT22;20140;49.356;8.812;2023-02-19T16:57:49;10.20;99.90
33837;DHT22;20140;49.356;8.812;2023-02-19T17:00:20;10.10;99.90
33837;DHT22;20140;49.356;8.812;2023-02-19T17:02:47;10.10;99.90
33837;DHT22;20140;49.356;8.812;2023-02-19T17:05:14;10.00;99.90
33837;DHT22;20140;49.356;8.812;2023-02-19T17:07:40;9.90;99.90
33837;DHT22;20140;49.356;8.812;2023-02-19T17:10:06;9.90;99.90
33837;DHT22;20140;49.356;8.812;2023-02-19T17:12:32;9.90;99.90
33837;DHT22;20140;49.356;8.812;2023-02-19T17:14:58;9.80;99.90
33837;DHT22;20140;49.356;8.812;2023-02-19T17:17:23;9.80;99.90
33837;DHT22;20140;49.356;8.812;2023-02-19T17:19:49;9.80;99.90
33837;DHT22;20140;49.356;8.812;2023-02-19T17:22:14;9.80;99.90
33837;DHT22;20140;49.356;8.812;2023-02-19T17:24:42;9.80;99.90
33837;DHT22;20140;49.356;8.812;2023-02-19T17:27:11;9.80;99.90
33837;DHT22;20140;49.356;8.812;2023-02-19T17:29:38;9.80;99.90
33837;DHT22;20140;49.356;8.812;2023-02-19T17:32:04;9.80;99.90
33837;DHT22;20140;49.356;8.812;2023-02-19T17:34:29;9.80;99.90
33837;DHT22;20140;49.356;8.812;2023-02-19T17:36:55;9.80;99.90
33837;DHT22;20140;49.356;8.812;2023-02-19T17:39:21;9.90;99.90
33837;DHT22;20140;49.356;8.812;2023-02-19T17:41:48;9.90;99.90
33837;DHT22;20140;49.356;8.812;2023-02-19T17:44:13;9.90;99.90
33837;DHT22;20140;49.356;8.812;2023-02-19T17:46:39;9.90;99.90
33837;DHT22;20140;49.356;8.812;2023-02-19T17:49:05;9.90;99.90
33837;DHT22;20140;49.356;8.812;2023-02-19T17:51:32;9.90;99.90
33837;DHT22;20140;49.356;8.812;2023-02-19T17:53:58;9.90;99.90
33837;DHT22;20140;49.356;8.812;2023-02-19T17:56:25;9.90;99.90
33837;DHT22;20140;49.356;8.812;2023-02-19T17:58:52;9.90;99.90
33837;DHT22;20140;49.356;8.812;2023-02-19T18:01:18;9.90;99.90
33837;DHT22;20140;49.356;8.812;2023-02-19T18:03:43;9.90;99.90
33837;DHT22;20140;49.356;8.812;2023-02-19T18:06:09;9.90;99.90
33837;DHT22;20140;49.356;8.812;2023-02-19T18:08:35;9.90;99.90
33837;DHT22;20140;49.356;8.812;2023-02-19T18:11:02;9.90;99.90
33837;DHT22;20140;49.356;8.812;2023-02-19T18:13:27;9.90;99.90
33837;DHT22;20140;49.356;8.812;2023-02-19T18:15:53;9.80;99.90
33837;DHT22;20140;49.356;8.812;2023-02-19T18:18:19;9.80;99.90